createdAt,value
2018-12-15T00:00:01.749Z,9.40
2018-12-15T00:02:34.136Z,9.40
2018-12-15T00:05:07.643Z,9.40
2018-12-15T00:07:38.748Z,9.40
2018-12-15T00:10:09.931Z,9.40
2018-12-15T00:12:40.861Z,9.40
2018-12-15T00:15:12.216Z,9.50
2018-12-15T00:17:43.171Z,9.50
2018-12-15T00:20:13.946Z,9.50
2018-12-15T00:22:44.796Z,9.40
2018-12-15T00:25:15.580Z,9.40
2018-12-15T00:27:46.372Z,9.40
2018-12-15T00:30:17.200Z,9.40
2018-12-15T00:32:47.936Z,9.40
2018-12-15T00:35:18.731Z,9.40
2018-12-15T00:37:49.441Z,9.30
2018-12-15T00:40:20.751Z,9.30
2018-12-15T00:42:51.746Z,9.30
2018-12-15T00:45:22.781Z,9.30
2018-12-15T00:47:53.570Z,9.20
2018-12-15T00:50:24.376Z,9.20
2018-12-15T00:52:55.692Z,9.20
2018-12-15T00:55:26.531Z,9.20
2018-12-15T00:57:57.191Z,9.20
2018-12-15T01:00:28.054Z,9.20
2018-12-15T01:02:58.851Z,9.10
2018-12-15T01:05:29.756Z,9.10
2018-12-15T01:08:00.872Z,9.10
2018-12-15T01:10:31.848Z,9.10
2018-12-15T01:13:02.572Z,9.10
2018-12-15T01:15:38.374Z,9.10
2018-12-15T01:18:09.087Z,9.00
2018-12-15T01:20:39.989Z,9.00
2018-12-15T01:23:10.882Z,9.00
2018-12-15T01:25:41.859Z,9.10
2018-12-15T01:28:12.606Z,9.00
2018-12-15T01:30:43.397Z,8.90
2018-12-15T01:33:14.137Z,9.00
2018-12-15T01:35:44.972Z,9.00
2018-12-15T01:38:15.807Z,8.90
2018-12-15T01:40:47.030Z,8.90
2018-12-15T01:43:17.987Z,8.80
2018-12-15T01:45:49.438Z,8.80
2018-12-15T01:48:20.358Z,8.90
2018-12-15T01:50:51.237Z,8.90
2018-12-15T01:53:21.949Z,8.80
2018-12-15T01:55:52.747Z,8.80
2018-12-15T01:58:23.448Z,8.80
2018-12-15T02:00:54.427Z,8.80
2018-12-15T02:03:25.127Z,8.80
2018-12-15T02:05:56.183Z,8.70
2018-12-15T02:08:27.047Z,8.70
2018-12-15T02:11:00.237Z,8.70
2018-12-15T02:13:30.988Z,8.60
2018-12-15T02:16:02.128Z,8.60
2018-12-15T02:18:32.968Z,8.70
2018-12-15T02:21:03.747Z,8.70
2018-12-15T02:23:34.522Z,8.50
2018-12-15T02:26:05.555Z,8.60
2018-12-15T02:28:36.318Z,8.60
2018-12-15T02:31:07.093Z,8.60
2018-12-15T02:33:37.828Z,8.60
2018-12-15T02:36:09.032Z,8.60
2018-12-15T02:38:39.747Z,8.60
2018-12-15T02:41:10.868Z,8.50
2018-12-15T02:43:41.687Z,8.50
2018-12-15T02:46:12.547Z,8.50
2018-12-15T02:48:43.203Z,8.50
2018-12-15T02:51:14.047Z,8.50
2018-12-15T02:53:44.852Z,8.50
2018-12-15T02:56:15.589Z,8.50
2018-12-15T02:58:46.256Z,8.50
2018-12-15T03:01:17.008Z,8.50
2018-12-15T03:03:47.812Z,8.50
2018-12-15T03:06:18.528Z,8.50
2018-12-15T03:08:49.407Z,8.40
2018-12-15T03:11:20.147Z,8.40
2018-12-15T03:13:50.955Z,8.50
2018-12-15T03:16:21.867Z,8.50
2018-12-15T03:18:52.639Z,8.40
2018-12-15T03:21:23.482Z,8.40
2018-12-15T03:23:54.298Z,8.30
2018-12-15T03:26:25.228Z,8.30
2018-12-15T03:28:56.072Z,8.30
2018-12-15T03:31:26.783Z,8.30
2018-12-15T03:33:57.537Z,8.40
2018-12-15T03:36:29.347Z,8.30
2018-12-15T03:39:01.322Z,8.30
2018-12-15T03:41:34.282Z,8.20
2018-12-15T03:44:05.208Z,8.20
2018-12-15T03:46:36.022Z,8.10
2018-12-15T03:49:06.662Z,8.20
2018-12-15T03:51:37.453Z,8.10
2018-12-15T03:54:08.242Z,8.20
2018-12-15T03:56:39.048Z,8.20
2018-12-15T03:59:09.802Z,8.20
2018-12-15T04:01:40.514Z,8.20
2018-12-15T04:04:11.306Z,8.10
2018-12-15T04:06:43.211Z,8.10
2018-12-15T04:09:13.948Z,8.10
2018-12-15T04:11:44.593Z,8.00
2018-12-15T04:14:15.289Z,8.00
2018-12-15T04:16:47.069Z,8.00
2018-12-15T04:19:17.843Z,8.00
2018-12-15T04:21:48.579Z,8.10
2018-12-15T04:24:19.258Z,8.00
2018-12-15T04:26:49.968Z,8.00
2018-12-15T04:29:22.879Z,8.10
2018-12-15T04:31:53.668Z,8.10
2018-12-15T04:34:24.359Z,8.10
2018-12-15T04:36:55.218Z,8.20
2018-12-15T04:39:26.033Z,8.20
2018-12-15T04:41:57.227Z,8.20
2018-12-15T04:44:28.119Z,8.20
2018-12-15T04:46:59.429Z,8.20
2018-12-15T04:49:30.183Z,8.30
2018-12-15T04:52:01.023Z,8.30
2018-12-15T04:54:31.888Z,8.40
2018-12-15T04:57:02.650Z,8.40
2018-12-15T04:59:33.513Z,8.40
2018-12-15T05:02:04.544Z,8.40
2018-12-15T05:04:35.408Z,8.40
2018-12-15T05:07:07.413Z,8.40
2018-12-15T05:09:38.292Z,8.50
2018-12-15T05:12:09.203Z,8.50
2018-12-15T05:14:40.087Z,8.50
2018-12-15T05:17:11.148Z,8.60
2018-12-15T05:19:42.033Z,8.60
2018-12-15T05:22:13.240Z,8.60
2018-12-15T05:24:44.533Z,8.60
2018-12-15T05:27:15.483Z,8.70
2018-12-15T05:29:46.372Z,8.60
2018-12-15T05:32:17.373Z,8.70
2018-12-15T05:34:48.248Z,8.70
2018-12-15T05:37:19.323Z,8.70
2018-12-15T05:39:50.150Z,8.80
2018-12-15T05:42:21.698Z,8.80
2018-12-15T05:44:52.483Z,8.90
2018-12-15T05:47:23.453Z,8.80
2018-12-15T05:49:54.253Z,8.90
2018-12-15T05:52:25.134Z,8.90
2018-12-15T05:54:55.958Z,8.90
2018-12-15T05:57:26.809Z,8.90
2018-12-15T05:59:57.543Z,9.00
2018-12-15T06:02:28.963Z,9.00
2018-12-15T06:05:00.149Z,9.00
2018-12-15T06:07:30.943Z,9.10
2018-12-15T06:10:02.253Z,9.10
2018-12-15T06:12:33.156Z,9.20
2018-12-15T06:15:03.864Z,9.20
2018-12-15T06:17:34.965Z,9.20
2018-12-15T06:20:06.226Z,9.30
2018-12-15T06:22:37.169Z,9.40
2018-12-15T06:25:08.090Z,9.40
2018-12-15T06:27:39.236Z,9.50
2018-12-15T06:30:10.339Z,9.50
2018-12-15T06:32:41.229Z,9.60
2018-12-15T06:35:12.140Z,9.70
2018-12-15T06:37:43.023Z,9.80
2018-12-15T06:40:13.855Z,9.80
2018-12-15T06:42:45.354Z,9.80
2018-12-15T06:45:16.396Z,9.80
2018-12-15T06:47:47.779Z,9.90
2018-12-15T06:50:18.875Z,9.90
2018-12-15T06:52:50.033Z,10.00
2018-12-15T06:55:21.033Z,10.00
2018-12-15T06:57:52.016Z,10.10
2018-12-15T07:00:23.074Z,10.20
2018-12-15T07:02:54.283Z,10.20
2018-12-15T07:05:25.303Z,10.20
2018-12-15T07:07:56.204Z,10.30
2018-12-15T07:10:27.103Z,10.40
2018-12-15T07:12:58.158Z,10.40
2018-12-15T07:15:28.945Z,10.40
2018-12-15T07:18:00.223Z,10.40
2018-12-15T07:20:31.143Z,10.60
2018-12-15T07:23:02.169Z,10.60
2018-12-15T07:25:33.672Z,10.70
2018-12-15T07:28:04.707Z,10.70
2018-12-15T07:30:35.954Z,10.80
2018-12-15T07:33:06.913Z,10.80
2018-12-15T07:35:38.152Z,10.90
2018-12-15T07:38:09.506Z,11.00
2018-12-15T07:40:40.628Z,11.10
2018-12-15T07:43:12.268Z,11.10
2018-12-15T07:45:43.022Z,11.00
2018-12-15T07:48:16.156Z,11.10
2018-12-15T07:50:47.488Z,11.10
2018-12-15T07:53:18.318Z,11.20
2018-12-15T07:55:49.381Z,11.10
2018-12-15T07:58:20.508Z,11.10
2018-12-15T08:00:52.108Z,11.20
2018-12-15T08:03:22.888Z,11.10
2018-12-15T08:05:53.774Z,11.30
2018-12-15T08:08:25.294Z,11.40
2018-12-15T08:11:00.878Z,11.30
2018-12-15T08:13:33.998Z,11.40
2018-12-15T08:16:04.883Z,11.40
2018-12-15T08:18:35.853Z,11.40
2018-12-15T08:21:06.853Z,11.40
2018-12-15T08:23:38.043Z,11.40
2018-12-15T08:26:08.882Z,11.50
2018-12-15T08:28:39.722Z,11.70
2018-12-15T08:31:10.693Z,11.80
2018-12-15T08:33:41.733Z,11.90
2018-12-15T08:36:12.643Z,11.80
2018-12-15T08:38:43.673Z,11.80
2018-12-15T08:41:14.593Z,11.80
2018-12-15T08:43:45.931Z,11.80
2018-12-15T08:46:18.193Z,11.90
2018-12-15T08:48:49.263Z,11.90
2018-12-15T08:51:20.647Z,12.00
2018-12-15T08:53:51.703Z,12.00
2018-12-15T08:56:22.657Z,12.10
2018-12-15T08:58:53.692Z,12.20
2018-12-15T09:01:24.552Z,12.20
2018-12-15T09:03:55.454Z,12.20
2018-12-15T09:06:26.463Z,12.20
2018-12-15T09:08:57.467Z,12.30
2018-12-15T09:11:28.398Z,12.40
2018-12-15T09:13:59.363Z,12.50
2018-12-15T09:16:30.282Z,12.50
2018-12-15T09:19:01.307Z,12.50
2018-12-15T09:21:32.242Z,12.60
2018-12-15T09:24:03.377Z,12.70
2018-12-15T09:26:34.382Z,12.80
2018-12-15T09:29:06.436Z,12.80
2018-12-15T09:31:37.562Z,13.00
2018-12-15T09:34:08.492Z,13.10
2018-12-15T09:36:39.462Z,13.10
2018-12-15T09:39:10.571Z,13.20
2018-12-15T09:41:41.662Z,13.40
2018-12-15T09:44:13.166Z,13.50
2018-12-15T09:46:44.222Z,13.50
2018-12-15T09:49:17.963Z,13.50
2018-12-15T09:51:48.256Z,13.60
2018-12-15T09:54:19.177Z,13.70
2018-12-15T09:56:49.887Z,13.70
2018-12-15T09:59:20.746Z,13.70
2018-12-15T10:01:52.141Z,13.70
2018-12-15T10:04:23.158Z,13.70
2018-12-15T10:06:54.142Z,13.90
2018-12-15T10:09:25.291Z,13.90
2018-12-15T10:11:56.492Z,13.90
2018-12-15T10:14:27.471Z,14.00
2018-12-15T10:16:58.311Z,14.00
2018-12-15T10:19:29.407Z,14.10
2018-12-15T10:22:00.511Z,14.20
2018-12-15T10:24:31.642Z,14.20
2018-12-15T10:27:02.617Z,14.30
2018-12-15T10:29:38.547Z,14.40
2018-12-15T10:32:14.418Z,14.20
2018-12-15T10:34:45.826Z,14.30
2018-12-15T10:37:17.102Z,14.50
2018-12-15T10:39:48.377Z,14.40
2018-12-15T10:42:19.596Z,14.60
2018-12-15T10:44:51.212Z,14.50
2018-12-15T10:47:22.176Z,14.60
2018-12-15T10:49:55.496Z,14.60
2018-12-15T10:52:28.527Z,14.70
2018-12-15T10:54:59.547Z,14.60
2018-12-15T10:57:30.591Z,14.70
2018-12-15T11:00:01.617Z,14.70
2018-12-15T11:02:32.697Z,14.70
2018-12-15T11:05:04.782Z,14.80
2018-12-15T11:07:35.694Z,14.90
2018-12-15T11:10:07.001Z,14.90
2018-12-15T11:12:37.861Z,14.80
2018-12-15T11:15:09.702Z,14.90
2018-12-15T11:17:40.643Z,14.90
2018-12-15T11:20:11.806Z,14.90
2018-12-15T11:22:42.667Z,14.90
2018-12-15T11:25:14.922Z,15.00
2018-12-15T11:27:45.807Z,14.90
2018-12-15T11:30:16.857Z,15.00
2018-12-15T11:32:47.748Z,15.10
2018-12-15T11:35:18.897Z,15.20
2018-12-15T11:37:50.297Z,15.10
2018-12-15T11:40:21.312Z,15.20
2018-12-15T11:42:52.127Z,15.20
2018-12-15T11:45:23.972Z,15.20
2018-12-15T11:47:54.982Z,15.20
2018-12-15T11:50:26.079Z,15.20
2018-12-15T11:55:27.427Z,15.20
2018-12-15T11:57:58.682Z,15.20
2018-12-15T12:00:30.094Z,15.20
2018-12-15T12:03:01.328Z,15.30
2018-12-15T12:05:32.279Z,15.30
2018-12-15T12:08:03.233Z,15.30
2018-12-15T12:10:34.207Z,15.40
2018-12-15T12:13:05.003Z,15.30
2018-12-15T12:15:36.292Z,15.40
2018-12-15T12:18:07.218Z,15.40
2018-12-15T12:20:38.377Z,15.50
2018-12-15T12:23:09.722Z,15.50
2018-12-15T12:25:42.872Z,15.40
2018-12-15T12:28:15.957Z,15.40
2018-12-15T12:30:46.937Z,15.50
2018-12-15T12:33:17.779Z,15.50
2018-12-15T12:35:48.742Z,15.60
2018-12-15T12:38:20.750Z,15.50
2018-12-15T12:40:51.832Z,15.40
2018-12-15T12:43:22.912Z,15.40
2018-12-15T12:45:54.202Z,15.40
2018-12-15T12:48:25.273Z,15.40
2018-12-15T12:50:56.407Z,15.40
2018-12-15T12:53:27.353Z,15.30
2018-12-15T12:55:58.368Z,15.40
2018-12-15T12:58:29.362Z,15.30
2018-12-15T13:01:00.567Z,15.30
2018-12-15T13:03:31.775Z,15.40
2018-12-15T13:06:03.097Z,15.40
2018-12-15T13:08:34.338Z,15.30
2018-12-15T13:11:05.582Z,15.30
2018-12-15T13:13:36.919Z,15.30
2018-12-15T13:16:08.458Z,15.30
2018-12-15T13:18:39.693Z,15.30
2018-12-15T13:21:11.493Z,15.30
2018-12-15T13:23:42.757Z,15.30
2018-12-15T13:26:14.236Z,15.30
2018-12-15T13:28:45.507Z,15.30
2018-12-15T13:31:16.919Z,15.20
2018-12-15T13:33:48.213Z,15.20
2018-12-15T13:36:20.539Z,15.20
2018-12-15T13:38:51.797Z,15.20
2018-12-15T13:41:23.276Z,15.10
2018-12-15T13:43:54.598Z,15.10
2018-12-15T13:46:26.467Z,15.00
2018-12-15T13:48:57.747Z,15.00
2018-12-15T13:51:29.357Z,15.00
2018-12-15T13:54:00.622Z,15.00
2018-12-15T13:56:32.172Z,14.90
2018-12-15T13:59:03.647Z,14.90
2018-12-15T14:01:35.037Z,14.80
2018-12-15T14:04:06.397Z,14.80
2018-12-15T14:06:37.858Z,14.70
2018-12-15T14:09:09.972Z,14.70
2018-12-15T14:11:41.323Z,14.60
2018-12-15T14:14:12.567Z,14.50
2018-12-15T14:16:44.072Z,14.50
2018-12-15T14:19:15.571Z,14.50
2018-12-15T14:21:47.212Z,14.40
2018-12-15T14:24:18.047Z,14.40
2018-12-15T14:26:49.062Z,14.30
2018-12-15T14:29:20.347Z,14.20
2018-12-15T14:31:51.792Z,14.20
2018-12-15T14:34:23.327Z,14.20
2018-12-15T14:36:54.867Z,14.20
2018-12-15T14:39:26.230Z,14.20
2018-12-15T14:41:57.676Z,14.10
2018-12-15T14:44:28.988Z,14.10
2018-12-15T14:47:00.552Z,14.10
2018-12-15T14:49:31.828Z,14.00
2018-12-15T14:52:05.308Z,14.00
2018-12-15T14:54:36.505Z,13.90
2018-12-15T14:57:07.817Z,13.90
2018-12-15T14:59:39.121Z,13.80
2018-12-15T15:02:10.587Z,13.90
2018-12-15T15:04:41.828Z,13.80
2018-12-15T15:07:13.602Z,13.70
2018-12-15T15:09:44.867Z,13.70
2018-12-15T15:12:16.232Z,13.60
2018-12-15T15:14:47.537Z,13.60
2018-12-15T15:17:18.972Z,13.60
2018-12-15T15:19:50.147Z,13.50
2018-12-15T15:22:21.706Z,13.50
2018-12-15T15:24:52.982Z,13.40
2018-12-15T15:27:24.286Z,13.40
2018-12-15T15:29:55.387Z,13.40
2018-12-15T15:32:26.642Z,13.40
2018-12-15T15:34:57.807Z,13.30
2018-12-15T15:37:29.042Z,13.30
2018-12-15T15:40:00.232Z,13.30
2018-12-15T15:42:31.697Z,13.30
2018-12-15T15:45:03.067Z,13.20
2018-12-15T15:47:35.057Z,13.20
2018-12-15T15:50:07.246Z,13.10
2018-12-15T15:52:38.846Z,13.10
2018-12-15T15:55:10.540Z,13.10
2018-12-15T15:57:42.157Z,13.00
2018-12-15T16:00:14.357Z,13.00
2018-12-15T16:02:45.701Z,13.00
2018-12-15T16:05:16.606Z,12.90
2018-12-15T16:07:47.652Z,12.80
2018-12-15T16:10:18.461Z,12.90
2018-12-15T16:12:49.492Z,12.80
2018-12-15T16:15:20.987Z,12.80
2018-12-15T16:17:52.378Z,12.80
2018-12-15T16:20:23.737Z,12.80
2018-12-15T16:22:54.737Z,12.80
2018-12-15T16:27:55.802Z,12.70
2018-12-15T16:30:26.858Z,12.80
2018-12-15T16:32:58.287Z,12.80
2018-12-15T16:35:29.567Z,12.70
2018-12-15T16:38:01.113Z,12.70
2018-12-15T16:40:31.956Z,12.60
2018-12-15T16:43:03.047Z,12.60
2018-12-15T16:45:34.252Z,12.50
2018-12-15T16:48:06.037Z,12.50
2018-12-15T16:50:36.932Z,12.60
2018-12-15T16:53:07.972Z,12.60
2018-12-15T16:55:39.377Z,12.50
2018-12-15T16:58:10.752Z,12.50
2018-12-15T17:00:41.822Z,12.50
2018-12-15T17:03:13.085Z,12.60
2018-12-15T17:05:43.912Z,12.60
2018-12-15T17:08:15.397Z,12.50
2018-12-15T17:10:46.618Z,12.50
2018-12-15T17:13:17.602Z,12.50
2018-12-15T17:15:49.692Z,12.60
2018-12-15T17:18:20.922Z,12.60
2018-12-15T17:20:56.614Z,12.60
2018-12-15T17:23:25.298Z,12.60
2018-12-15T17:25:57.012Z,12.60
2018-12-15T17:28:29.032Z,12.50
2018-12-15T17:30:59.762Z,12.50
2018-12-15T17:33:31.097Z,12.50
2018-12-15T17:36:02.016Z,12.60
2018-12-15T17:38:33.341Z,12.50
2018-12-15T17:41:04.226Z,12.60
2018-12-15T17:43:37.440Z,12.60
2018-12-15T17:46:08.717Z,12.60
2018-12-15T17:48:42.352Z,12.60
2018-12-15T17:51:16.072Z,12.60
2018-12-15T17:53:47.255Z,12.60
2018-12-15T17:56:18.092Z,12.60
2018-12-15T17:58:51.043Z,12.60
2018-12-15T18:01:22.367Z,12.60
2018-12-15T18:03:53.457Z,12.60
2018-12-15T18:06:24.857Z,12.50
2018-12-15T18:08:55.857Z,12.50
2018-12-15T18:11:26.782Z,12.50
2018-12-15T18:13:57.707Z,12.50
2018-12-15T18:16:28.472Z,12.50
2018-12-15T18:18:59.907Z,12.50
2018-12-15T18:21:30.927Z,12.50
2018-12-15T18:24:01.862Z,12.50
2018-12-15T18:26:32.522Z,12.40
2018-12-15T18:29:03.442Z,12.50
2018-12-15T18:31:34.312Z,12.50
2018-12-15T18:34:05.102Z,12.40
2018-12-15T18:36:36.057Z,12.40
2018-12-15T18:39:08.577Z,12.40
2018-12-15T18:41:41.857Z,12.40
2018-12-15T18:44:13.042Z,12.40
2018-12-15T18:46:43.857Z,12.40
2018-12-15T18:49:15.167Z,12.40
2018-12-15T18:51:46.232Z,12.30
2018-12-15T18:54:17.605Z,12.30
2018-12-15T18:56:48.548Z,12.40
2018-12-15T18:59:20.767Z,12.40
2018-12-15T19:01:51.791Z,12.30
2018-12-15T19:04:22.814Z,12.30
2018-12-15T19:06:53.844Z,12.40
2018-12-15T19:09:24.998Z,12.30
2018-12-15T19:11:55.939Z,12.40
2018-12-15T19:14:30.887Z,12.30
2018-12-15T19:17:02.162Z,12.30
2018-12-15T19:19:33.158Z,12.40
2018-12-15T19:22:04.062Z,12.40
2018-12-15T19:24:36.342Z,12.30
2018-12-15T19:27:07.603Z,12.40
2018-12-15T19:29:39.112Z,12.30
2018-12-15T19:32:10.405Z,12.30
2018-12-15T19:34:41.458Z,12.30
2018-12-15T19:37:13.797Z,12.30
2018-12-15T19:39:45.102Z,12.40
2018-12-15T19:42:16.207Z,12.30
2018-12-15T19:44:48.607Z,12.30
2018-12-15T19:47:20.907Z,12.20
2018-12-15T19:49:52.252Z,12.20
2018-12-15T19:52:23.217Z,12.10
2018-12-15T19:54:54.638Z,12.20
2018-12-15T19:57:40.057Z,12.10
2018-12-15T20:00:26.318Z,12.20
2018-12-15T20:03:02.487Z,12.20
2018-12-15T20:05:34.192Z,12.30
2018-12-15T20:08:05.707Z,12.30
2018-12-15T20:10:36.523Z,12.30
2018-12-15T20:13:08.582Z,12.30
2018-12-15T20:15:40.648Z,12.30
2018-12-15T20:18:11.582Z,12.30
2018-12-15T20:20:42.522Z,12.30
2018-12-15T20:23:13.472Z,12.30
2018-12-15T20:25:44.423Z,12.30
2018-12-15T20:28:15.511Z,12.30
2018-12-15T20:30:46.502Z,12.20
2018-12-15T20:33:17.237Z,12.20
2018-12-15T20:35:48.107Z,12.20
2018-12-15T20:38:19.868Z,12.20
2018-12-15T20:40:50.727Z,12.20
2018-12-15T20:43:22.632Z,12.20
2018-12-15T20:45:53.716Z,12.20
2018-12-15T20:48:24.576Z,12.20
2018-12-15T20:50:55.767Z,12.20
2018-12-15T20:53:27.178Z,12.20
2018-12-15T20:55:58.232Z,12.10
2018-12-15T20:58:29.011Z,12.20
2018-12-15T21:01:01.048Z,12.10
2018-12-15T21:03:32.022Z,12.10
2018-12-15T21:06:02.817Z,12.10
2018-12-15T21:08:34.615Z,12.00
2018-12-15T21:11:05.702Z,12.00
2018-12-15T21:13:36.435Z,12.00
2018-12-15T21:16:07.492Z,11.90
2018-12-15T21:18:38.457Z,11.90
2018-12-15T21:21:09.483Z,11.90
2018-12-15T21:23:40.337Z,11.90
2018-12-15T21:26:12.523Z,11.90
2018-12-15T21:28:43.412Z,11.80
2018-12-15T21:31:14.313Z,11.90
2018-12-15T21:33:45.213Z,11.80
2018-12-15T21:36:16.163Z,11.70
2018-12-15T21:38:47.003Z,11.70
2018-12-15T21:41:17.909Z,11.60
2018-12-15T21:43:48.734Z,11.60
2018-12-15T21:46:19.778Z,11.50
2018-12-15T21:48:50.735Z,11.40
2018-12-15T21:51:22.237Z,11.40
2018-12-15T21:53:53.132Z,11.40
2018-12-15T21:56:24.272Z,11.40
2018-12-15T21:58:55.203Z,11.30
2018-12-15T22:01:26.142Z,11.30
2018-12-15T22:03:56.983Z,11.30
2018-12-15T22:06:27.923Z,11.30
2018-12-15T22:08:58.723Z,11.20
2018-12-15T22:11:29.642Z,11.20
2018-12-15T22:14:00.503Z,11.10
2018-12-15T22:16:31.810Z,11.10
2018-12-15T22:19:03.923Z,11.10
2018-12-15T22:21:34.874Z,11.00
2018-12-15T22:24:05.713Z,11.00
2018-12-15T22:26:36.762Z,11.00
2018-12-15T22:29:07.638Z,10.90
2018-12-15T22:31:38.698Z,10.80
2018-12-15T22:34:09.512Z,10.80
2018-12-15T22:36:40.526Z,10.70
2018-12-15T22:39:11.339Z,10.70
2018-12-15T22:41:42.322Z,10.80
2018-12-15T22:44:14.414Z,10.80
2018-12-15T22:46:45.502Z,10.70
2018-12-15T22:49:16.331Z,10.80
2018-12-15T22:51:47.747Z,10.70
2018-12-15T22:54:18.667Z,10.70
2018-12-15T22:56:49.737Z,10.70
2018-12-15T22:59:20.567Z,10.70
2018-12-15T23:01:51.457Z,10.60
2018-12-15T23:04:22.912Z,10.70
2018-12-15T23:06:53.822Z,10.60
2018-12-15T23:09:24.707Z,10.60
2018-12-15T23:11:55.612Z,10.60
2018-12-15T23:14:28.486Z,10.50
2018-12-15T23:16:59.352Z,10.50
2018-12-15T23:19:30.231Z,10.50
2018-12-15T23:22:01.206Z,10.40
2018-12-15T23:24:33.151Z,10.40
2018-12-15T23:27:04.301Z,10.40
2018-12-15T23:29:36.251Z,10.40
2018-12-15T23:32:07.212Z,10.30
2018-12-15T23:34:38.022Z,10.30
2018-12-15T23:37:08.993Z,10.30
2018-12-15T23:39:39.932Z,10.20
2018-12-15T23:42:10.912Z,10.20
2018-12-15T23:44:42.006Z,10.20
2018-12-15T23:47:13.022Z,10.10
2018-12-15T23:49:44.046Z,10.10
2018-12-15T23:52:15.442Z,10.10
2018-12-15T23:54:46.266Z,10.10
2018-12-15T23:57:17.318Z,10.10
2018-12-15T23:59:48.201Z,10.10
